Time;durP1;ratioP1;P1;durP2;ratioP2;P2;SDS_P1;SDS_P2;PMS_P1;PMS_P2;Temp;Humidity;BMP_temperature;BMP_pressure;BME280_temperature;BME280_humidity;BME280_pressure;Samples;Min_cycle;Max_cycle;Signal;HPM_P1;HPM_P2
2021/11/05 00:02:18;;;;;;;1.52;0.88;;;;;;;12.13;86.01;95562.39;1752518;81;21051;-67
2021/11/05 00:04:45;;;;;;;2.70;0.70;;;;;;;12.18;86.55;95564.92;1752306;82;21000;-66
2021/11/05 00:07:11;;;;;;;8.30;0.93;;;;;;;12.25;86.67;95571.80;1752109;81;21055;-66
2021/11/05 00:09:40;;;;;;;4.55;1.00;;;;;;;12.21;86.15;95566.16;1752129;82;20992;-65
2021/11/05 00:12:08;;;;;;;2.72;0.50;;;;;;;12.19;86.35;95564.87;1752731;81;21038;-66
2021/11/05 00:14:35;;;;;;;3.55;0.40;;;;;;;12.17;86.18;95573.32;1752585;82;21484;-66
2021/11/05 00:17:02;;;;;;;1.27;0.60;;;;;;;12.10;86.32;95580.53;1752447;82;21007;-66
2021/11/05 00:19:28;;;;;;;2.58;0.80;;;;;;;12.13;86.55;95580.91;1752066;82;21103;-66
2021/11/05 00:21:55;;;;;;;2.80;0.40;;;;;;;12.16;86.77;95568.05;1752118;81;21150;-66
2021/11/05 00:24:22;;;;;;;2.42;0.25;;;;;;;12.13;86.48;95580.91;1752406;81;21015;-66
2021/11/05 00:26:49;;;;;;;3.08;1.00;;;;;;;12.06;86.13;95577.53;1752333;81;21015;-66
2021/11/05 00:29:15;;;;;;;1.90;0.50;;;;;;;12.12;86.54;95576.08;1752069;82;21086;-66
2021/11/05 00:31:42;;;;;;;4.05;0.70;;;;;;;12.11;86.27;95575.64;1752340;81;21019;-66
2021/11/05 00:34:09;;;;;;;1.17;0.40;;;;;;;12.00;85.88;95584.31;1747067;82;20996;-66
2021/11/05 00:36:35;;;;;;;2.92;0.78;;;;;;;11.98;86.25;95582.14;1744086;82;21027;-66
2021/11/05 00:39:02;;;;;;;1.85;0.53;;;;;;;11.96;86.47;95583.09;1744106;82;21465;-66
2021/11/05 00:41:29;;;;;;;3.05;0.50;;;;;;;11.94;86.67;95597.66;1743800;81;21031;-67
2021/11/05 00:43:55;;;;;;;1.77;0.50;;;;;;;11.91;86.77;95593.31;1744131;82;21011;-66
2021/11/05 00:46:22;;;;;;;2.62;0.53;;;;;;;11.94;86.92;95594.15;1744066;81;21070;-66
2021/11/05 00:48:48;;;;;;;1.75;0.80;;;;;;;11.90;86.66;95598.20;1743977;81;21067;-66
2021/11/05 00:51:14;;;;;;;3.10;0.70;;;;;;;11.91;87.53;95603.03;1744035;82;21011;-67
2021/11/05 00:53:41;;;;;;;3.77;1.60;;;;;;;11.94;87.43;95595.47;1743889;81;21034;-66
2021/11/05 00:56:07;;;;;;;3.47;2.08;;;;;;;11.97;87.76;95598.03;1744181;82;21007;-66
2021/11/05 00:58:34;;;;;;;3.25;0.80;;;;;;;11.94;87.49;95596.80;1744174;81;21035;-66
2021/11/05 01:01:00;;;;;;;1.45;0.70;;;;;;;11.96;87.34;95596.31;1744203;82;21043;-66
2021/11/05 01:03:27;;;;;;;5.37;1.30;;;;;;;11.98;87.05;95591.41;1743880;82;21100;-66
2021/11/05 01:05:53;;;;;;;4.25;2.17;;;;;;;11.91;87.75;95593.77;1744341;81;20991;-67
2021/11/05 01:08:20;;;;;;;9.80;7.58;;;;;;;11.87;87.97;95585.06;1743974;81;21063;-66
2021/11/05 01:10:47;;;;;;;7.67;2.55;;;;;;;11.79;88.61;95574.20;1743869;82;21082;-66
2021/11/05 01:13:13;;;;;;;2.17;1.22;;;;;;;11.78;88.53;95576.44;1743834;82;21532;-66
2021/11/05 01:15:40;;;;;;;0.88;0.68;;;;;;;11.79;88.15;95571.13;1744279;82;21035;-66
2021/11/05 01:18:07;;;;;;;1.10;0.80;;;;;;;11.83;88.04;95581.16;1743841;82;21105;-66
2021/11/05 01:20:33;;;;;;;1.92;0.78;;;;;;;11.85;88.41;95606.66;1744006;81;21024;-66
2021/11/05 01:23:00;;;;;;;3.30;0.75;;;;;;;11.89;88.42;95604.83;1744246;82;21504;-66
2021/11/05 01:25:27;;;;;;;5.85;0.80;;;;;;;11.89;88.15;95594.25;1744082;82;21027;-66
2021/11/05 01:27:54;;;;;;;7.92;1.02;;;;;;;11.86;87.87;95599.59;1743736;82;21557;-66
2021/11/05 01:30:21;;;;;;;3.65;1.00;;;;;;;11.84;88.64;95606.25;1744193;81;20988;-66
2021/11/05 01:32:49;;;;;;;3.25;0.90;;;;;;;11.86;88.98;95612.81;1744032;82;21040;-66
2021/11/05 01:35:17;;;;;;;5.78;1.05;;;;;;;11.91;88.44;95614.92;1752113;81;21501;-66
2021/11/05 01:37:44;;;;;;;4.05;1.10;;;;;;;11.93;88.20;95610.94;1723065;82;21034;-66
2021/11/05 01:40:13;;;;;;;7.80;1.72;;;;;;;11.95;88.52;95619.25;1752269;81;21098;-66
2021/11/05 01:42:40;;;;;;;8.20;2.50;;;;;;;11.96;88.18;95618.33;1752203;82;20967;-66
2021/11/05 01:45:09;;;;;;;3.95;1.47;;;;;;;11.88;88.59;95632.19;1752059;82;21182;-66
2021/11/05 01:47:38;;;;;;;5.67;1.80;;;;;;;11.85;88.09;95622.52;1752354;81;21023;-67
2021/11/05 01:50:08;;;;;;;3.83;1.70;;;;;;;11.82;88.41;95608.06;1752387;82;21016;-66
2021/11/05 01:52:38;;;;;;;2.67;0.98;;;;;;;11.88;88.45;95613.68;1752384;82;21062;-66
2021/11/05 01:55:06;;;;;;;2.83;0.93;;;;;;;11.88;88.03;95607.07;1752332;82;20976;-66
2021/11/05 01:57:33;;;;;;;5.45;0.88;;;;;;;11.89;88.16;95595.15;1751948;82;21087;-66
2021/11/05 02:00:00;;;;;;;5.45;1.00;;;;;;;11.86;87.86;95591.66;1752512;81;21015;-66
2021/11/05 02:02:26;;;;;;;2.65;0.98;;;;;;;11.84;87.89;95596.11;1752450;81;21027;-66
2021/11/05 02:04:53;;;;;;;2.83;0.72;;;;;;;11.87;87.84;95589.48;1752790;81;21034;-66
2021/11/05 02:07:22;;;;;;;3.55;0.80;;;;;;;11.77;87.43;95591.86;1752519;82;20976;-66
2021/11/05 02:09:49;;;;;;;4.60;0.60;;;;;;;11.73;87.37;95588.89;1752372;82;21058;-67
2021/11/05 02:12:17;;;;;;;2.10;0.70;;;;;;;11.63;87.44;95582.95;1752403;81;21059;-66
2021/11/05 02:14:46;;;;;;;3.22;0.70;;;;;;;11.59;87.81;95582.16;1752522;82;21005;-66
2021/11/05 02:17:14;;;;;;;3.65;0.98;;;;;;;11.55;87.85;95581.80;1752459;81;21058;-66
2021/11/05 02:19:42;;;;;;;1.40;0.70;;;;;;;11.55;87.81;95576.52;1752374;82;21493;-66
2021/11/05 02:22:10;;;;;;;1.85;1.25;;;;;;;11.55;88.08;95593.69;1752451;81;20976;-66
2021/11/05 02:24:36;;;;;;;1.65;0.75;;;;;;;11.53;89.71;95596.81;1752284;82;21540;-66
2021/11/05 02:27:04;;;;;;;9.53;2.75;;;;;;;11.56;89.31;95596.73;1752029;81;20999;-66
2021/11/05 02:29:32;;;;;;;1.75;1.02;;;;;;;11.59;89.30;95592.73;1752520;82;21422;-67
2021/11/05 02:32:00;;;;;;;1.70;0.62;;;;;;;11.59;88.95;95615.19;1752388;82;21059;-66
2021/11/05 02:34:28;;;;;;;2.22;1.00;;;;;;;11.54;88.99;95622.35;1747987;81;21050;-66
2021/11/05 02:36:56;;;;;;;2.70;2.20;;;;;;;11.55;89.62;95619.25;1744233;81;21549;-66
2021/11/05 02:39:23;;;;;;;2.58;1.25;;;;;;;11.59;89.67;95612.55;1744269;81;21043;-66
2021/11/05 02:41:52;;;;;;;5.60;2.50;;;;;;;11.55;89.62;95610.00;1744083;82;21015;-66
2021/11/05 02:44:20;;;;;;;4.42;2.33;;;;;;;11.58;89.82;95602.00;1744080;82;20996;-66
2021/11/05 02:46:47;;;;;;;6.60;2.12;;;;;;;11.63;89.58;95606.73;1744202;82;21086;-66
2021/11/05 02:49:15;;;;;;;3.77;2.10;;;;;;;11.63;89.84;95607.59;1744450;82;21059;-66
2021/11/05 02:51:45;;;;;;;5.45;1.80;;;;;;;11.66;89.78;95594.30;1744360;82;20992;-66
2021/11/05 02:54:11;;;;;;;3.80;2.27;;;;;;;11.70;89.52;95611.84;1744222;82;21055;-66
2021/11/05 02:56:38;;;;;;;5.65;1.55;;;;;;;11.64;88.99;95605.81;1743877;81;20996;-66
2021/11/05 02:59:06;;;;;;;9.05;3.58;;;;;;;11.59;88.77;95570.69;1744109;82;20995;-66
2021/11/05 03:01:35;;;;;;;6.95;2.80;;;;;;;11.64;89.19;95556.92;1743960;82;21043;-66
2021/11/05 03:04:06;;;;;;;3.80;3.00;;;;;;;11.67;88.89;95556.41;1744299;81;21016;-66
2021/11/05 03:06:36;;;;;;;2.58;1.70;;;;;;;11.64;88.61;95558.24;1744123;82;21035;-66
2021/11/05 03:09:10;;;;;;;2.17;0.78;;;;;;;11.63;88.95;95552.09;1744182;82;21043;-66
2021/11/05 03:11:37;;;;;;;;;;;;;;;11.62;88.89;95569.33;1746218;81;21042;-66
2021/11/05 03:14:05;;;;;;;3.58;0.82;;;;;;;11.60;89.17;95572.45;1743957;81;20119;-66
2021/11/05 03:16:33;;;;;;;2.02;0.70;;;;;;;11.56;88.97;95583.98;1744267;82;21031;-66
2021/11/05 03:19:01;;;;;;;4.90;2.05;;;;;;;11.52;89.48;95592.91;1744152;81;21051;-66
2021/11/05 03:21:27;;;;;;;2.67;1.07;;;;;;;11.48;90.86;95605.30;1744203;82;21115;-66
2021/11/05 03:23:54;;;;;;;3.55;0.93;;;;;;;11.50;90.16;95607.45;1743940;81;21000;-66
2021/11/05 03:26:21;;;;;;;2.55;0.75;;;;;;;11.49;90.16;95591.20;1743720;82;21000;-66
2021/11/05 03:28:48;;;;;;;2.55;0.93;;;;;;;11.53;90.02;95584.92;1743869;82;21581;-66
2021/11/05 03:31:14;;;;;;;2.80;0.70;;;;;;;11.55;89.90;95596.33;1744257;82;21031;-66
2021/11/05 03:33:41;;;;;;;5.75;1.50;;;;;;;11.56;90.17;95603.34;1713404;82;21047;-66
2021/11/05 03:36:08;;;;;;;6.70;2.30;;;;;;;11.60;90.06;95606.34;1752520;81;21525;-66
2021/11/05 03:38:35;;;;;;;2.98;2.27;;;;;;;11.57;90.47;95591.89;1752440;81;21062;-66
2021/11/05 03:41:02;;;;;;;2.40;1.52;;;;;;;11.58;90.02;95612.11;1751952;81;21137;-67
2021/11/05 03:43:29;;;;;;;2.83;1.10;;;;;;;11.61;89.99;95627.03;1752350;81;20980;-66
2021/11/05 03:45:56;;;;;;;2.35;0.80;;;;;;;11.61;89.93;95631.86;1752215;82;21024;-66
2021/11/05 03:48:23;;;;;;;4.10;0.80;;;;;;;11.62;90.00;95627.01;1752152;81;21022;-66
2021/11/05 03:50:49;;;;;;;4.87;1.35;;;;;;;11.62;89.67;95619.08;1752562;81;20983;-66
2021/11/05 03:53:16;;;;;;;3.00;1.90;;;;;;;11.59;89.59;95600.66;1752434;81;21540;-66
2021/11/05 03:55:42;;;;;;;3.30;2.00;;;;;;;11.59;89.50;95621.80;1752090;82;21047;-66
2021/11/05 03:58:09;;;;;;;4.65;1.60;;;;;;;11.62;89.68;95629.66;1752416;81;21015;-66
2021/11/05 04:00:36;;;;;;;1.72;1.50;;;;;;;11.67;89.91;95640.98;1752408;82;21023;-66
2021/11/05 04:03:02;;;;;;;2.58;1.98;;;;;;;11.61;89.71;95642.43;1752433;82;20983;-66
2021/11/05 04:05:29;;;;;;;6.33;3.40;;;;;;;11.58;90.17;95642.96;1752175;81;21075;-66
2021/11/05 04:07:55;;;;;;;4.37;1.90;;;;;;;11.58;89.95;95647.78;1752234;81;21054;-66
2021/11/05 04:10:22;;;;;;;1.75;0.62;;;;;;;11.57;89.75;95640.77;1752445;82;21031;-66
2021/11/05 04:12:48;;;;;;;2.37;1.45;;;;;;;11.50;89.12;95629.05;1752321;82;21011;-66
2021/11/05 04:15:14;;;;;;;3.30;1.55;;;;;;;11.45;89.07;95626.05;1752375;81;21031;-66
2021/11/05 04:17:41;;;;;;;5.23;1.10;;;;;;;11.52;89.73;95612.27;1752103;81;21039;-66
2021/11/05 04:20:10;;;;;;;1.80;1.27;;;;;;;11.61;89.88;95601.92;1752258;82;21023;-66
2021/11/05 04:22:39;;;;;;;2.45;1.10;;;;;;;11.67;89.93;95601.80;1752358;82;21501;-66
2021/11/05 04:25:07;;;;;;;5.08;3.08;;;;;;;11.70;89.62;95595.98;1752419;82;21560;-66
2021/11/05 04:27:33;;;;;;;19.77;12.18;;;;;;;11.67;89.61;95603.13;1751997;81;21019;-66
2021/11/05 04:30:00;;;;;;;18.12;9.28;;;;;;;11.64;89.45;95604.06;1752227;81;21102;-66
2021/11/05 04:32:27;;;;;;;11.25;6.70;;;;;;;11.66;89.38;95613.26;1752293;82;21066;-66
2021/11/05 04:34:54;;;;;;;4.37;3.17;;;;;;;11.65;89.27;95619.00;1752150;81;21047;-66
2021/11/05 04:37:20;;;;;;;6.58;3.75;;;;;;;11.66;89.28;95619.87;1752213;81;21071;-66
2021/11/05 04:39:47;;;;;;;5.35;3.70;;;;;;;11.67;89.31;95621.17;1752405;81;21038;-66
2021/11/05 04:42:14;;;;;;;8.28;3.87;;;;;;;11.68;89.13;95631.28;1751972;82;21031;-66
2021/11/05 04:44:40;;;;;;;5.17;3.47;;;;;;;11.72;89.24;95625.46;1752179;82;21030;-66
2021/11/05 04:47:07;;;;;;;11.78;6.20;;;;;;;11.74;89.21;95644.80;1752155;82;21494;-66
2021/11/05 04:49:34;;;;;;;9.40;5.05;;;;;;;11.79;89.14;95650.86;1752432;81;20995;-66
2021/11/05 04:52:00;;;;;;;5.72;3.15;;;;;;;11.79;88.78;95641.18;1752183;81;21011;-66
2021/11/05 04:54:27;;;;;;;3.90;2.30;;;;;;;11.74;88.58;95638.20;1752441;81;21036;-66
2021/11/05 04:56:53;;;;;;;4.15;2.40;;;;;;;11.70;88.39;95631.66;1751635;82;21757;-66
2021/11/05 04:59:20;;;;;;;3.40;2.35;;;;;;;11.69;88.69;95620.69;1752432;82;21042;-67
2021/11/05 05:01:47;;;;;;;5.42;3.10;;;;;;;11.67;88.59;95639.67;1752588;81;21015;-66
2021/11/05 05:04:14;;;;;;;30.23;17.30;;;;;;;11.63;88.60;95652.98;1751964;82;21505;-66
2021/11/05 05:06:41;;;;;;;34.13;16.10;;;;;;;11.67;88.99;95651.56;1752103;82;21030;-66
2021/11/05 05:09:07;;;;;;;27.50;14.35;;;;;;;11.75;89.24;95647.42;1752513;81;21026;-66
2021/11/05 05:11:34;;;;;;;13.93;6.65;;;;;;;11.77;88.66;95639.02;1751822;82;21031;-66
2021/11/05 05:14:00;;;;;;;4.67;3.08;;;;;;;11.69;88.08;95635.66;1752276;82;21019;-66
2021/11/05 05:16:27;;;;;;;5.15;2.62;;;;;;;11.67;88.32;95642.31;1752504;81;21030;-66
2021/11/05 05:18:53;;;;;;;27.30;13.13;;;;;;;11.63;87.98;95641.09;1752149;81;21066;-66
2021/11/05 05:21:20;;;;;;;26.85;19.23;;;;;;;11.54;89.35;95646.56;1752027;82;21130;-66
2021/11/05 05:23:46;;;;;;;12.05;3.47;;;;;;;11.56;89.37;95637.70;1752404;82;21062;-66
2021/11/05 05:26:13;;;;;;;2.77;1.17;;;;;;;11.60;89.04;95647.31;1752272;82;21012;-66
2021/11/05 05:28:39;;;;;;;3.65;1.10;;;;;;;11.59;88.97;95637.66;1752141;82;21035;-66
2021/11/05 05:31:07;;;;;;;4.45;1.00;;;;;;;11.60;89.27;95642.02;1752027;82;21039;-66
2021/11/05 05:33:36;;;;;;;1.52;0.90;;;;;;;11.59;89.47;95640.72;1752124;82;21513;-66
2021/11/05 05:36:05;;;;;;;8.08;5.53;;;;;;;11.56;89.68;95646.08;1752504;81;21458;-66
2021/11/05 05:38:32;;;;;;;12.15;7.12;;;;;;;11.52;89.86;95649.72;1752476;82;21023;-66
2021/11/05 05:41:00;;;;;;;16.87;9.20;;;;;;;11.51;89.62;95651.92;1752041;82;21079;-66
2021/11/05 05:43:27;;;;;;;16.00;9.85;;;;;;;11.51;90.00;95652.78;1752349;81;21070;-66
2021/11/05 05:45:54;;;;;;;10.55;5.53;;;;;;;11.49;90.24;95659.90;1752136;82;21038;-66
2021/11/05 05:48:22;;;;;;;22.80;12.63;;;;;;;11.57;90.33;95667.20;1752953;82;21547;-66
2021/11/05 05:50:49;;;;;;;14.25;7.60;;;;;;;11.59;89.60;95677.30;1752241;82;21031;-66
2021/11/05 05:53:16;;;;;;;17.55;10.65;;;;;;;11.54;89.42;95677.84;1752403;82;21026;-66
2021/11/05 05:55:44;;;;;;;12.70;6.40;;;;;;;11.55;89.58;95680.03;1752547;81;21500;-66
2021/11/05 05:58:10;;;;;;;10.00;5.72;;;;;;;11.63;89.96;95686.02;1752397;81;21067;-66
2021/11/05 06:00:37;;;;;;;14.75;6.60;;;;;;;11.68;89.86;95682.36;1752302;81;21039;-66
2021/11/05 06:03:04;;;;;;;10.25;5.95;;;;;;;11.75;89.75;95673.00;1752305;81;21066;-66
2021/11/05 06:05:31;;;;;;;6.65;5.12;;;;;;;11.77;89.37;95674.70;1752148;82;21526;-66
2021/11/05 06:07:59;;;;;;;6.50;2.98;;;;;;;11.80;89.20;95665.84;1752199;82;21037;-66
2021/11/05 06:10:25;;;;;;;4.53;2.00;;;;;;;11.79;88.71;95672.91;1752563;81;21015;-66
2021/11/05 06:12:52;;;;;;;5.08;1.50;;;;;;;11.69;88.42;95673.55;1752353;82;21054;-66
2021/11/05 06:15:19;;;;;;;3.17;1.40;;;;;;;11.74;88.90;95676.52;1752364;82;21488;-67
2021/11/05 06:17:45;;;;;;;59.70;19.45;;;;;;;11.84;89.28;95685.99;1752250;82;21528;-66
2021/11/05 06:20:12;;;;;;;15.50;5.62;;;;;;;11.84;88.91;95697.47;1752650;82;21058;-66
2021/11/05 06:22:39;;;;;;;66.65;23.12;;;;;;;11.76;89.57;95695.41;1752406;81;21529;-66
2021/11/05 06:25:05;;;;;;;13.48;6.33;;;;;;;11.79;89.31;95696.70;1752528;81;21494;-66
2021/11/05 06:27:32;;;;;;;14.75;8.28;;;;;;;11.91;89.66;95692.92;1752023;81;21502;-66
2021/11/05 06:29:59;;;;;;;6.03;4.53;;;;;;;12.01;89.43;95693.13;1752508;81;20980;-66
2021/11/05 06:32:26;;;;;;;6.47;4.15;;;;;;;12.08;89.11;95695.20;1752162;82;21504;-66
2021/11/05 06:34:53;;;;;;;10.65;4.95;;;;;;;12.00;88.47;95695.37;1750494;81;21075;-66
2021/11/05 06:37:19;;;;;;;9.18;3.00;;;;;;;11.93;88.15;95688.48;1744156;82;21528;-66
2021/11/05 06:39:46;;;;;;;3.00;1.82;;;;;;;11.87;88.17;95698.74;1743936;82;21051;-66
2021/11/05 06:42:14;;;;;;;6.05;2.60;;;;;;;11.88;88.51;95695.64;1743939;81;21545;-67
2021/11/05 06:44:41;;;;;;;9.48;3.47;;;;;;;11.93;88.58;95696.41;1744512;81;21004;-67
2021/11/05 06:47:07;;;;;;;7.90;3.35;;;;;;;11.96;88.52;95687.53;1744457;81;20996;-66
2021/11/05 06:49:34;;;;;;;4.33;3.20;;;;;;;12.01;88.72;95693.59;1744269;82;21050;-66
2021/11/05 06:52:01;;;;;;;5.45;2.75;;;;;;;12.07;88.81;95693.44;1744227;81;21015;-66
2021/11/05 06:54:27;;;;;;;4.67;2.35;;;;;;;12.03;88.61;95693.97;1743935;82;21098;-67
2021/11/05 06:56:54;;;;;;;7.10;2.20;;;;;;;12.00;88.86;95703.30;1743839;81;21035;-67
2021/11/05 06:59:20;;;;;;;4.00;2.27;;;;;;;12.08;89.05;95709.74;1744061;81;21032;-66
2021/11/05 07:01:47;;;;;;;3.33;2.45;;;;;;;12.17;89.25;95712.62;1744273;81;21059;-67
2021/11/05 07:04:14;;;;;;;5.53;2.40;;;;;;;12.20;89.10;95709.47;1743708;82;21039;-66
2021/11/05 07:06:46;;;;;;;7.55;2.33;;;;;;;12.18;88.60;95709.95;1744037;82;20980;-66
2021/11/05 07:09:15;;;;;;;4.50;1.67;;;;;;;12.15;88.19;95714.00;1744342;82;21044;-66
2021/11/05 07:11:43;;;;;;;4.08;1.67;;;;;;;12.16;87.99;95717.05;1744123;82;21003;-66
2021/11/05 07:14:10;;;;;;;6.90;3.35;;;;;;;12.06;87.62;95725.63;1744050;82;21008;-66
2021/11/05 07:16:37;;;;;;;10.53;7.37;;;;;;;12.01;88.05;95739.41;1744172;82;21040;-66
2021/11/05 07:19:05;;;;;;;22.25;13.53;;;;;;;12.04;88.97;95741.98;1744178;81;21000;-66
2021/11/05 07:21:32;;;;;;;22.80;15.08;;;;;;;12.01;89.27;95748.67;1744217;81;21004;-66
2021/11/05 07:24:03;;;;;;;22.95;14.25;;;;;;;12.03;89.10;95752.61;1744157;82;21019;-67
2021/11/05 07:26:42;;;;;;;36.00;32.35;;;;;;;12.09;89.05;95757.75;1744358;82;21466;-67
2021/11/05 07:29:10;;;;;;;9.40;6.15;;;;;;;12.10;88.61;95772.73;1743676;81;21059;-66
2021/11/05 07:31:39;;;;;;;6.58;3.90;;;;;;;12.10;88.71;95779.35;1744118;81;21047;-66
2021/11/05 07:34:05;;;;;;;7.28;3.77;;;;;;;12.14;88.65;95781.00;1744128;82;20995;-66
2021/11/05 07:36:32;;;;;;;7.53;4.03;;;;;;;12.12;88.26;95786.81;1744102;82;21478;-66
2021/11/05 07:38:59;;;;;;;15.00;9.58;;;;;;;12.17;88.42;95770.39;1744151;81;21031;-66
2021/11/05 07:41:26;;;;;;;14.28;9.53;;;;;;;12.23;88.68;95775.98;1744280;82;21050;-66
2021/11/05 07:43:53;;;;;;;14.18;8.73;;;;;;;12.30;88.74;95773.63;1743813;82;21032;-66
2021/11/05 07:46:21;;;;;;;15.78;10.20;;;;;;;12.28;88.38;95761.74;1743655;82;21047;-67
2021/11/05 07:48:47;;;;;;;15.75;11.10;;;;;;;12.36;88.81;95756.73;1744158;81;21066;-67
2021/11/05 07:51:14;;;;;;;10.35;8.05;;;;;;;12.43;88.64;95754.37;1744352;81;21079;-67
2021/11/05 07:53:41;;;;;;;11.53;7.90;;;;;;;12.46;88.18;95766.20;1744304;81;21003;-67
2021/11/05 07:56:07;;;;;;;12.18;6.33;;;;;;;12.52;88.55;95769.58;1743919;81;21090;-66
2021/11/05 07:58:34;;;;;;;9.65;6.62;;;;;;;12.59;88.14;95760.16;1744044;82;21552;-67
2021/11/05 08:01:00;;;;;;;10.30;6.67;;;;;;;12.56;87.75;95759.78;1744191;82;21003;-66
2021/11/05 08:03:27;;;;;;;11.97;8.50;;;;;;;12.59;88.23;95765.45;1744260;81;21024;-67
2021/11/05 08:05:53;;;;;;;9.10;6.25;;;;;;;12.67;88.42;95767.45;1713037;82;21027;-66
2021/11/05 08:08:20;;;;;;;9.65;6.17;;;;;;;12.75;87.96;95748.28;1744016;81;21020;-67
2021/11/05 08:10:46;;;;;;;10.30;5.50;;;;;;;12.76;87.83;95741.63;1744127;82;21067;-66
2021/11/05 08:13:14;;;;;;;9.18;4.97;;;;;;;12.83;87.75;95737.53;1744038;82;21035;-66
2021/11/05 08:15:41;;;;;;;8.95;7.50;;;;;;;12.91;88.09;95739.52;1744355;81;20964;-66
2021/11/05 08:18:08;;;;;;;11.05;8.45;;;;;;;13.02;88.32;95749.38;1743857;81;21039;-66
2021/11/05 08:44:35;;;;;;;18.85;14.80;;;;;;;13.27;84.71;95778.78;1860200;77;22544;-68
2021/11/05 08:47:01;;;;;;;12.55;11.28;;;;;;;13.04;85.11;95789.94;1832061;78;21000;-66
2021/11/05 08:49:29;;;;;;;62.55;11.48;;;;;;;13.04;85.96;95795.23;1831922;78;21054;-71
2021/11/05 08:51:56;;;;;;;23.45;12.18;;;;;;;13.00;85.00;95789.59;1832002;78;21091;-72
2021/11/05 08:54:23;;;;;;;21.10;11.08;;;;;;;12.95;84.90;95804.72;1800003;78;21019;-71
2021/11/05 08:56:50;;;;;;;13.98;9.35;;;;;;;12.87;85.04;95809.34;1832074;78;21008;-72
2021/11/05 08:59:20;;;;;;;13.88;9.00;;;;;;;12.86;85.75;95820.86;1832266;78;21019;-72
2021/11/05 09:01:47;;;;;;;17.85;8.15;;;;;;;12.96;86.62;95829.86;1832234;78;21012;-72
2021/11/05 09:04:14;;;;;;;15.43;8.48;;;;;;;13.06;86.70;95830.52;1832072;78;21009;-70
2021/11/05 09:06:43;;;;;;;12.63;9.25;;;;;;;13.03;84.98;95825.73;1800541;78;21062;-70
2021/11/05 09:09:10;;;;;;;10.98;9.40;;;;;;;12.99;85.26;95826.27;1832001;78;21540;-71
2021/11/05 09:11:37;;;;;;;30.12;9.63;;;;;;;13.08;86.05;95810.59;1832259;78;21042;-67
2021/11/05 09:14:04;;;;;;;11.38;9.10;;;;;;;13.11;84.99;95814.52;1832382;78;21059;-70
2021/11/05 09:16:31;;;;;;;15.83;11.10;;;;;;;13.05;84.94;95824.78;1832157;78;21043;-66
2021/11/05 09:19:02;;;;;;;14.33;10.88;;;;;;;13.03;84.76;95831.02;1831925;78;21027;-67
2021/11/05 09:21:32;;;;;;;19.15;11.48;;;;;;;13.08;85.36;95823.83;1832618;78;21538;-63
2021/11/05 09:24:00;;;;;;;18.40;13.28;;;;;;;13.10;85.17;95817.63;1831773;78;21008;-67
2021/11/05 09:26:27;;;;;;;16.60;13.95;;;;;;;13.20;85.80;95797.03;1832288;78;20980;-64
2021/11/05 09:28:53;;;;;;;16.67;12.98;;;;;;;13.29;85.75;95793.33;1832284;78;21081;-65
2021/11/05 09:31:21;;;;;;;15.68;11.83;;;;;;;13.32;85.22;95806.03;1831902;78;21019;-65
2021/11/05 09:33:49;;;;;;;13.00;9.50;;;;;;;13.26;84.98;95816.77;1832415;78;21005;-65
2021/11/05 09:36:17;;;;;;;19.77;15.45;;;;;;;13.24;84.84;95823.88;1831816;78;20992;-65
2021/11/05 09:38:46;;;;;;;20.08;14.80;;;;;;;13.12;85.78;95840.08;1832243;78;21051;-65
2021/11/05 09:41:13;;;;;;;26.42;19.12;;;;;;;13.08;86.54;95846.35;1832300;78;21003;-65
2021/11/05 09:43:41;;;;;;;20.12;16.23;;;;;;;13.14;86.39;95827.67;1833377;78;21087;-65
2021/11/05 09:46:09;;;;;;;18.50;14.95;;;;;;;13.16;86.67;95821.89;1835418;78;21008;-65
2021/11/05 09:48:38;;;;;;;18.95;15.38;;;;;;;13.20;86.30;95811.61;1835428;78;21015;-65
2021/11/05 09:51:10;;;;;;;23.57;17.15;;;;;;;13.18;86.39;95816.11;1834539;78;21011;-65
2021/11/05 09:53:38;;;;;;;15.78;12.28;;;;;;;13.23;86.73;95820.83;1835173;78;21023;-65
2021/11/05 09:56:08;;;;;;;16.67;13.22;;;;;;;13.27;86.91;95831.78;1835293;78;21058;-65
2021/11/05 09:58:38;;;;;;;17.52;14.03;;;;;;;13.31;86.92;95833.45;1835162;78;21016;-65
2021/11/05 10:01:06;;;;;;;20.17;15.95;;;;;;;13.31;86.80;95833.45;1835320;78;20999;-65
2021/11/05 10:03:33;;;;;;;23.00;17.30;;;;;;;13.33;86.67;95838.27;1835290;78;21051;-65
2021/11/05 10:06:01;;;;;;;26.48;21.20;;;;;;;13.41;86.75;95836.28;1835277;78;21464;-65
2021/11/05 10:08:33;;;;;;;40.17;29.60;;;;;;;13.45;86.37;95826.92;1834914;78;21122;-65
2021/11/05 10:11:20;;;;;;;48.25;35.48;;;;;;;13.54;86.56;95836.83;1835625;78;21019;-65
2021/11/05 10:13:47;;;;;;;40.15;29.30;;;;;;;13.48;85.61;95837.01;1835385;78;21027;-67
2021/11/05 10:16:15;;;;;;;29.42;19.85;;;;;;;13.45;85.68;95839.71;1835132;78;21559;-67
2021/11/05 10:19:05;;;;;;;28.98;18.45;;;;;;;13.40;85.52;95837.17;1834876;78;21489;-67
2021/11/05 10:21:40;;;;;;;20.88;13.75;;;;;;;13.32;85.32;95835.64;1835206;78;20987;-67
2021/11/05 10:24:14;;;;;;;24.75;18.95;;;;;;;13.24;85.69;95834.94;1835247;78;21012;-67
2021/11/05 10:26:44;;;;;;;20.80;14.87;;;;;;;13.23;85.93;95843.35;1834455;78;21042;-67
2021/11/05 10:29:30;;;;;;;28.95;23.73;;;;;;;13.18;86.30;95849.22;1834910;78;21043;-67
2021/11/05 10:32:09;;;;;;;31.40;23.55;;;;;;;13.13;85.87;95849.33;1835041;78;21026;-67
2021/11/05 10:34:54;;;;;;;32.93;25.57;;;;;;;12.97;86.60;95847.48;1834780;78;21043;-67
2021/11/05 10:37:33;;;;;;;53.85;34.78;;;;;;;12.91;87.13;95850.29;1835096;78;20984;-67
2021/11/05 10:40:01;;;;;;;70.08;42.13;;;;;;;12.84;87.31;95847.83;1834703;78;21004;-67
2021/11/05 10:42:35;;;;;;;68.42;39.33;;;;;;;12.80;87.93;95844.81;1835247;78;21523;-67
2021/11/05 10:45:13;;;;;;;53.78;35.50;;;;;;;12.76;87.88;95836.95;1796700;79;21085;-67
2021/11/05 10:47:59;;;;;;;35.48;24.05;;;;;;;12.78;87.86;95833.82;1819300;79;21051;-67
2021/11/05 10:50:35;;;;;;;29.37;20.32;;;;;;;12.79;88.07;95839.98;1824243;79;21426;-67
2021/11/05 10:53:10;;;;;;;27.35;19.37;;;;;;;12.78;87.89;95840.44;1823770;79;20992;-67
2021/11/05 10:55:48;;;;;;;16.77;13.78;;;;;;;12.77;87.63;95837.81;1823608;79;21012;-67
2021/11/05 10:58:22;;;;;;;12.20;7.45;;;;;;;12.77;87.48;95836.06;1823872;79;21497;-67
2021/11/05 11:00:57;;;;;;;11.10;4.97;;;;;;;12.78;87.56;95840.90;1823984;78;21509;-67
2021/11/05 11:03:31;;;;;;;6.03;4.45;;;;;;;12.76;87.70;95846.68;1823957;79;21020;-67
2021/11/05 11:06:01;;;;;;;;;;;;;;;12.77;87.51;95848.41;1826911;79;21035;-67
2021/11/05 11:08:34;;;;;;;12.35;5.67;;;;;;;12.77;87.60;95845.33;1823534;79;20391;-67
2021/11/05 11:11:28;;;;;;;8.13;5.12;;;;;;;12.85;88.03;95847.80;1824233;79;21084;-67
2021/11/05 11:14:00;;;;;;;4.80;3.75;;;;;;;12.90;87.85;95850.31;1820072;79;20996;-67
2021/11/05 11:16:34;;;;;;;4.50;3.27;;;;;;;12.92;87.77;95847.18;1824130;79;21054;-67
2021/11/05 11:19:10;;;;;;;8.20;3.52;;;;;;;12.97;87.76;95851.91;1824132;79;21011;-67
2021/11/05 11:21:47;;;;;;;8.80;3.80;;;;;;;13.06;87.77;95850.38;1824022;79;21063;-67
2021/11/05 11:24:20;;;;;;;7.28;3.80;;;;;;;13.08;87.54;95841.95;1824303;79;21063;-67
2021/11/05 11:26:50;;;;;;;5.92;3.42;;;;;;;13.13;87.67;95851.98;1823848;79;21107;-67
2021/11/05 11:29:24;;;;;;;4.83;3.30;;;;;;;13.17;87.40;95853.63;1823645;79;21064;-67
2021/11/05 11:31:53;;;;;;;5.72;3.77;;;;;;;13.28;87.73;95855.17;1823788;79;21529;-67
2021/11/05 11:34:20;;;;;;;6.87;4.30;;;;;;;13.44;88.13;95847.72;1824210;79;21537;-67
2021/11/05 11:36:51;;;;;;;4.03;3.20;;;;;;;13.56;87.64;95849.59;1823314;79;21028;-67
2021/11/05 11:39:22;;;;;;;3.67;2.87;;;;;;;13.59;87.03;95846.86;1824038;79;21059;-67
2021/11/05 11:41:50;;;;;;;4.47;3.10;;;;;;;13.63;86.64;95849.86;1824305;79;21474;-67
2021/11/05 11:44:21;;;;;;;4.50;2.98;;;;;;;13.60;86.30;95849.05;1829915;78;21145;-67
2021/11/05 11:47:02;;;;;;;3.67;2.87;;;;;;;13.66;86.57;95838.73;1835252;78;21039;-67
2021/11/05 11:49:40;;;;;;;6.60;3.25;;;;;;;13.64;85.92;95826.86;1834661;78;21126;-68
2021/11/05 11:52:19;;;;;;;3.80;2.83;;;;;;;13.73;86.61;95835.00;1834701;78;21099;-65
2021/11/05 11:54:49;;;;;;;4.05;3.08;;;;;;;13.81;86.42;95839.67;1833424;78;21051;-65
2021/11/05 11:57:23;;;;;;;5.28;3.90;;;;;;;13.83;86.16;95838.72;1835263;78;21038;-65
2021/11/05 12:00:13;;;;;;;3.52;3.00;;;;;;;13.85;86.01;95843.50;1835152;78;20991;-65